sensor_id;sensor_type;location;lat;lon;timestamp;temperature;humidity
7143;DHT22;3613;48.902;9.204;2023-10-08T00:00:26;11.80;97.80
7143;DHT22;3613;48.902;9.204;2023-10-08T00:03:11;11.80;95.70
7143;DHT22;3613;48.902;9.204;2023-10-08T00:05:37;11.80;92.60
7143;DHT22;3613;48.902;9.204;2023-10-08T00:08:07;11.80;84.20
7143;DHT22;3613;48.902;9.204;2023-10-08T00:10:41;11.90;85.50
7143;DHT22;3613;48.902;9.204;2023-10-08T00:13:14;12.00;83.20
7143;DHT22;3613;48.902;9.204;2023-10-08T00:15:42;11.90;78.90
7143;DHT22;3613;48.902;9.204;2023-10-08T00:18:19;11.90;86.30
7143;DHT22;3613;48.902;9.204;2023-10-08T00:20:50;11.90;99.20
7143;DHT22;3613;48.902;9.204;2023-10-08T00:23:35;12.00;89.00
7143;DHT22;3613;48.902;9.204;2023-10-08T00:26:24;12.10;88.30
7143;DHT22;3613;48.902;9.204;2023-10-08T00:29:03;11.90;87.60
7143;DHT22;3613;48.902;9.204;2023-10-08T00:31:44;11.90;93.80
7143;DHT22;3613;48.902;9.204;2023-10-08T00:34:13;11.90;91.70
7143;DHT22;3613;48.902;9.204;2023-10-08T00:36:44;11.90;80.50
7143;DHT22;3613;48.902;9.204;2023-10-08T00:39:13;12.60;86.70
7143;DHT22;3613;48.902;9.204;2023-10-08T00:41:51;12.00;79.40
7143;DHT22;3613;48.902;9.204;2023-10-08T00:44:38;12.00;82.50
7143;DHT22;3613;48.902;9.204;2023-10-08T00:47:19;11.90;98.00
7143;DHT22;3613;48.902;9.204;2023-10-08T00:49:47;11.60;97.90
7143;DHT22;3613;48.902;9.204;2023-10-08T00:52:28;11.90;90.00
7143;DHT22;3613;48.902;9.204;2023-10-08T00:55:13;11.80;92.20
7143;DHT22;3613;48.902;9.204;2023-10-08T00:57:57;11.80;94.60
7143;DHT22;3613;48.902;9.204;2023-10-08T01:00:36;11.80;86.70
7143;DHT22;3613;48.902;9.204;2023-10-08T01:03:09;11.80;99.90
7143;DHT22;3613;48.902;9.204;2023-10-08T01:05:43;11.90;96.70
7143;DHT22;3613;48.902;9.204;2023-10-08T01:08:15;11.70;96.70
7143;DHT22;3613;48.902;9.204;2023-10-08T01:10:48;11.60;99.90
7143;DHT22;3613;48.902;9.204;2023-10-08T01:13:23;11.50;97.30
7143;DHT22;3613;48.902;9.204;2023-10-08T01:15:52;11.40;99.90
7143;DHT22;3613;48.902;9.204;2023-10-08T01:18:17;11.60;99.90
7143;DHT22;3613;48.902;9.204;2023-10-08T01:20:50;11.30;99.90
7143;DHT22;3613;48.902;9.204;2023-10-08T01:23:18;11.20;99.40
7143;DHT22;3613;48.902;9.204;2023-10-08T01:25:47;11.30;99.90
7143;DHT22;3613;48.902;9.204;2023-10-08T01:28:33;9.80;99.90
7143;DHT22;3613;48.902;9.204;2023-10-08T01:31:03;11.10;99.90
7143;DHT22;3613;48.902;9.204;2023-10-08T01:33:30;11.10;99.90
7143;DHT22;3613;48.902;9.204;2023-10-08T01:35:57;11.20;99.90
7143;DHT22;3613;48.902;9.204;2023-10-08T01:38:31;11.00;99.90
7143;DHT22;3613;48.902;9.204;2023-10-08T01:40:58;11.00;96.20
7143;DHT22;3613;48.902;9.204;2023-10-08T01:43:30;11.00;99.90
7143;DHT22;3613;48.902;9.204;2023-10-08T01:45:56;11.00;99.90
7143;DHT22;3613;48.902;9.204;2023-10-08T01:48:22;10.90;99.90
7143;DHT22;3613;48.902;9.204;2023-10-08T01:50:59;11.00;99.90
7143;DHT22;3613;48.902;9.204;2023-10-08T01:53:27;10.90;99.90
7143;DHT22;3613;48.902;9.204;2023-10-08T01:55:53;11.10;99.90
7143;DHT22;3613;48.902;9.204;2023-10-08T01:58:21;10.80;99.90
7143;DHT22;3613;48.902;9.204;2023-10-08T02:00:48;10.70;99.90
7143;DHT22;3613;48.902;9.204;2023-10-08T02:03:15;10.70;99.90
7143;DHT22;3613;48.902;9.204;2023-10-08T02:05:45;10.60;99.90
7143;DHT22;3613;48.902;9.204;2023-10-08T02:08:14;10.70;99.90
7143;DHT22;3613;48.902;9.204;2023-10-08T02:10:43;10.60;99.90
7143;DHT22;3613;48.902;9.204;2023-10-08T02:13:13;10.60;99.90
7143;DHT22;3613;48.902;9.204;2023-10-08T02:15:44;10.50;99.90
7143;DHT22;3613;48.902;9.204;2023-10-08T02:18:10;10.50;99.90
7143;DHT22;3613;48.902;9.204;2023-10-08T02:20:39;10.60;99.90
7143;DHT22;3613;48.902;9.204;2023-10-08T02:23:05;10.50;99.90
7143;DHT22;3613;48.902;9.204;2023-10-08T02:25:31;10.30;99.90
7143;DHT22;3613;48.902;9.204;2023-10-08T02:27:59;10.20;99.90
7143;DHT22;3613;48.902;9.204;2023-10-08T02:30:28;10.20;99.90
7143;DHT22;3613;48.902;9.204;2023-10-08T02:32:56;10.10;99.90
7143;DHT22;3613;48.902;9.204;2023-10-08T02:35:23;10.10;99.90
7143;DHT22;3613;48.902;9.204;2023-10-08T02:37:49;10.00;99.90
7143;DHT22;3613;48.902;9.204;2023-10-08T02:40:17;10.00;99.90
7143;DHT22;3613;48.902;9.204;2023-10-08T02:42:51;10.10;99.90
7143;DHT22;3613;48.902;9.204;2023-10-08T02:45:26;10.00;99.90
7143;DHT22;3613;48.902;9.204;2023-10-08T02:47:53;10.00;99.90
7143;DHT22;3613;48.902;9.204;2023-10-08T02:50:22;10.00;99.90
7143;DHT22;3613;48.902;9.204;2023-10-08T02:52:49;10.00;99.90
7143;DHT22;3613;48.902;9.204;2023-10-08T02:55:18;10.00;99.90
7143;DHT22;3613;48.902;9.204;2023-10-08T02:58:02;9.90;99.90
7143;DHT22;3613;48.902;9.204;2023-10-08T03:00:29;9.90;99.90
7143;DHT22;3613;48.902;9.204;2023-10-08T03:02:58;9.90;99.90
7143;DHT22;3613;48.902;9.204;2023-10-08T03:05:26;9.90;99.90
7143;DHT22;3613;48.902;9.204;2023-10-08T03:08:03;9.80;99.90
7143;DHT22;3613;48.902;9.204;2023-10-08T03:10:37;9.80;99.90
7143;DHT22;3613;48.902;9.204;2023-10-08T03:13:03;9.80;99.90
7143;DHT22;3613;48.902;9.204;2023-10-08T03:15:33;9.80;99.90
7143;DHT22;3613;48.902;9.204;2023-10-08T03:18:19;9.90;99.90
7143;DHT22;3613;48.902;9.204;2023-10-08T03:20:46;9.70;99.90
7143;DHT22;3613;48.902;9.204;2023-10-08T03:23:15;9.80;99.90
7143;DHT22;3613;48.902;9.204;2023-10-08T03:26:05;9.80;99.90
7143;DHT22;3613;48.902;9.204;2023-10-08T03:28:57;9.70;99.90
7143;DHT22;3613;48.902;9.204;2023-10-08T03:31:24;9.70;99.90
7143;DHT22;3613;48.902;9.204;2023-10-08T03:34:11;9.70;99.90
7143;DHT22;3613;48.902;9.204;2023-10-08T03:36:40;9.70;99.90
7143;DHT22;3613;48.902;9.204;2023-10-08T03:39:10;9.70;99.90
7143;DHT22;3613;48.902;9.204;2023-10-08T03:41:40;9.70;99.90
7143;DHT22;3613;48.902;9.204;2023-10-08T03:44:07;9.70;99.90
7143;DHT22;3613;48.902;9.204;2023-10-08T03:46:41;9.70;99.90
7143;DHT22;3613;48.902;9.204;2023-10-08T03:49:15;9.70;99.90
7143;DHT22;3613;48.902;9.204;2023-10-08T03:51:50;9.60;99.90
7143;DHT22;3613;48.902;9.204;2023-10-08T03:54:23;9.60;99.90
7143;DHT22;3613;48.902;9.204;2023-10-08T03:57:01;9.60;99.90
7143;DHT22;3613;48.902;9.204;2023-10-08T03:59:29;9.60;99.90
7143;DHT22;3613;48.902;9.204;2023-10-08T04:01:58;9.50;99.90
7143;DHT22;3613;48.902;9.204;2023-10-08T04:04:33;9.50;99.90
7143;DHT22;3613;48.902;9.204;2023-10-08T04:07:21;9.50;99.90
7143;DHT22;3613;48.902;9.204;2023-10-08T04:09:57;9.50;99.90
7143;DHT22;3613;48.902;9.204;2023-10-08T04:12:45;9.40;99.90
7143;DHT22;3613;48.902;9.204;2023-10-08T04:15:17;9.40;99.90
7143;DHT22;3613;48.902;9.204;2023-10-08T04:17:43;9.40;99.90
7143;DHT22;3613;48.902;9.204;2023-10-08T04:20:13;9.50;99.90
7143;DHT22;3613;48.902;9.204;2023-10-08T04:22:58;9.50;99.90
7143;DHT22;3613;48.902;9.204;2023-10-08T04:25:28;9.50;99.90
7143;DHT22;3613;48.902;9.204;2023-10-08T04:27:55;9.50;99.90
7143;DHT22;3613;48.902;9.204;2023-10-08T04:30:28;9.50;99.90
7143;DHT22;3613;48.902;9.204;2023-10-08T04:33:04;9.50;99.90
7143;DHT22;3613;48.902;9.204;2023-10-08T04:35:37;9.50;99.90
7143;DHT22;3613;48.902;9.204;2023-10-08T04:38:16;9.60;99.90
7143;DHT22;3613;48.902;9.204;2023-10-08T04:40:46;9.50;99.90
7143;DHT22;3613;48.902;9.204;2023-10-08T04:43:18;9.60;99.90
7143;DHT22;3613;48.902;9.204;2023-10-08T04:45:57;9.60;99.90
7143;DHT22;3613;48.902;9.204;2023-10-08T04:48:26;9.70;99.90
7143;DHT22;3613;48.902;9.204;2023-10-08T04:50:58;9.60;99.90
7143;DHT22;3613;48.902;9.204;2023-10-08T04:53:32;9.60;99.90
7143;DHT22;3613;48.902;9.204;2023-10-08T04:56:03;9.50;99.90
7143;DHT22;3613;48.902;9.204;2023-10-08T04:58:45;9.50;99.90
7143;DHT22;3613;48.902;9.204;2023-10-08T05:01:16;9.50;99.90
7143;DHT22;3613;48.902;9.204;2023-10-08T05:04:03;9.50;99.90
7143;DHT22;3613;48.902;9.204;2023-10-08T05:06:30;9.60;99.90
7143;DHT22;3613;48.902;9.204;2023-10-08T05:11:38;9.50;99.90
7143;DHT22;3613;48.902;9.204;2023-10-08T05:14:18;9.50;99.90
7143;DHT22;3613;48.902;9.204;2023-10-08T05:17:00;9.50;99.90
7143;DHT22;3613;48.902;9.204;2023-10-08T05:19:29;9.40;99.90
7143;DHT22;3613;48.902;9.204;2023-10-08T05:22:08;9.40;99.90
7143;DHT22;3613;48.902;9.204;2023-10-08T05:24:52;9.40;99.90
7143;DHT22;3613;48.902;9.204;2023-10-08T05:27:40;9.30;99.90
7143;DHT22;3613;48.902;9.204;2023-10-08T05:32:59;9.30;99.90
7143;DHT22;3613;48.902;9.204;2023-10-08T05:35:45;9.40;99.90
7143;DHT22;3613;48.902;9.204;2023-10-08T05:38:15;9.30;99.90
7143;DHT22;3613;48.902;9.204;2023-10-08T05:41:01;9.30;99.90
7143;DHT22;3613;48.902;9.204;2023-10-08T05:43:35;9.30;99.90
7143;DHT22;3613;48.902;9.204;2023-10-08T05:46:11;9.30;99.90
7143;DHT22;3613;48.902;9.204;2023-10-08T05:49:05;9.30;99.90
7143;DHT22;3613;48.902;9.204;2023-10-08T05:51:32;9.30;99.90
7143;DHT22;3613;48.902;9.204;2023-10-08T05:54:20;9.40;99.90
7143;DHT22;3613;48.902;9.204;2023-10-08T05:57:01;9.40;99.90
7143;DHT22;3613;48.902;9.204;2023-10-08T05:59:50;9.50;99.90
7143;DHT22;3613;48.902;9.204;2023-10-08T06:02:30;9.60;99.90
7143;DHT22;3613;48.902;9.204;2023-10-08T06:05:09;9.70;99.90
7143;DHT22;3613;48.902;9.204;2023-10-08T06:07:46;9.70;99.90
7143;DHT22;3613;48.902;9.204;2023-10-08T06:10:28;9.80;99.90
7143;DHT22;3613;48.902;9.204;2023-10-08T06:13:04;9.90;99.90
7143;DHT22;3613;48.902;9.204;2023-10-08T06:15:57;10.00;99.90
7143;DHT22;3613;48.902;9.204;2023-10-08T06:18:33;10.10;99.90
7143;DHT22;3613;48.902;9.204;2023-10-08T06:21:02;10.10;99.90
7143;DHT22;3613;48.902;9.204;2023-10-08T06:23:40;10.10;99.90
7143;DHT22;3613;48.902;9.204;2023-10-08T06:26:07;10.20;99.90
7143;DHT22;3613;48.902;9.204;2023-10-08T06:28:41;10.20;99.90
7143;DHT22;3613;48.902;9.204;2023-10-08T06:31:07;10.30;99.90
7143;DHT22;3613;48.902;9.204;2023-10-08T06:33:40;10.40;99.90
7143;DHT22;3613;48.902;9.204;2023-10-08T06:36:06;10.40;99.90
7143;DHT22;3613;48.902;9.204;2023-10-08T06:38:45;10.50;99.90
7143;DHT22;3613;48.902;9.204;2023-10-08T06:41:17;10.60;99.90
7143;DHT22;3613;48.902;9.204;2023-10-08T06:43:47;10.80;99.90
7143;DHT22;3613;48.902;9.204;2023-10-08T06:46:27;10.90;99.90
7143;DHT22;3613;48.902;9.204;2023-10-08T06:48:56;11.00;99.90
7143;DHT22;3613;48.902;9.204;2023-10-08T06:51:22;11.20;99.90
7143;DHT22;3613;48.902;9.204;2023-10-08T06:53:50;11.30;99.90
7143;DHT22;3613;48.902;9.204;2023-10-08T06:56:17;11.30;99.90
7143;DHT22;3613;48.902;9.204;2023-10-08T06:58:45;11.30;99.90
7143;DHT22;3613;48.902;9.204;2023-10-08T07:01:17;11.40;97.80
7143;DHT22;3613;48.902;9.204;2023-10-08T07:03:49;11.50;91.80
7143;DHT22;3613;48.902;9.204;2023-10-08T07:06:18;11.50;79.00
7143;DHT22;3613;48.902;9.204;2023-10-08T07:09:03;11.60;66.40
7143;DHT22;3613;48.902;9.204;2023-10-08T07:11:34;11.60;70.50
7143;DHT22;3613;48.902;9.204;2023-10-08T07:14:07;11.70;99.90
7143;DHT22;3613;48.902;9.204;2023-10-08T07:16:36;11.90;89.40
7143;DHT22;3613;48.902;9.204;2023-10-08T07:19:01;12.00;99.90
7143;DHT22;3613;48.902;9.204;2023-10-08T07:21:31;12.30;72.90
7143;DHT22;3613;48.902;9.204;2023-10-08T07:24:11;12.60;89.30
7143;DHT22;3613;48.902;9.204;2023-10-08T07:26:41;13.00;12.70
7143;DHT22;3613;48.902;9.204;2023-10-08T07:29:13;13.40;1.00
7143;DHT22;3613;48.902;9.204;2023-10-08T07:31:43;13.70;23.00
7143;DHT22;3613;48.902;9.204;2023-10-08T07:34:17;14.00;1.00
7143;DHT22;3613;48.902;9.204;2023-10-08T07:36:49;14.20;1.00
7143;DHT22;3613;48.902;9.204;2023-10-08T07:39:16;14.30;22.40
7143;DHT22;3613;48.902;9.204;2023-10-08T07:42:11;14.50;1.00
7143;DHT22;3613;48.902;9.204;2023-10-08T07:44:37;14.80;1.00
7143;DHT22;3613;48.902;9.204;2023-10-08T07:47:06;14.90;1.00
7143;DHT22;3613;48.902;9.204;2023-10-08T07:49:40;15.00;1.00
7143;DHT22;3613;48.902;9.204;2023-10-08T07:52:11;15.30;1.00
7143;DHT22;3613;48.902;9.204;2023-10-08T07:54:40;15.60;1.00
7143;DHT22;3613;48.902;9.204;2023-10-08T07:57:06;15.80;1.00
7143;DHT22;3613;48.902;9.204;2023-10-08T07:59:37;16.20;1.00
7143;DHT22;3613;48.902;9.204;2023-10-08T08:02:09;17.60;1.00
7143;DHT22;3613;48.902;9.204;2023-10-08T08:04:42;18.90;26.40
7143;DHT22;3613;48.902;9.204;2023-10-08T08:07:19;18.60;1.00
7143;DHT22;3613;48.902;9.204;2023-10-08T08:09:49;17.60;1.00
7143;DHT22;3613;48.902;9.204;2023-10-08T08:12:25;17.00;1.00
7143;DHT22;3613;48.902;9.204;2023-10-08T08:14:53;17.50;1.00
7143;DHT22;3613;48.902;9.204;2023-10-08T08:17:19;18.50;29.00
7143;DHT22;3613;48.902;9.204;2023-10-08T08:19:48;19.20;99.90
7143;DHT22;3613;48.902;9.204;2023-10-08T08:22:18;20.00;99.90
7143;DHT22;3613;48.902;9.204;2023-10-08T08:24:50;21.00;99.90
7143;DHT22;3613;48.902;9.204;2023-10-08T08:27:20;21.50;99.90
7143;DHT22;3613;48.902;9.204;2023-10-08T08:29:57;21.80;99.90
7143;DHT22;3613;48.902;9.204;2023-10-08T08:32:37;21.80;99.90
7143;DHT22;3613;48.902;9.204;2023-10-08T08:35:09;22.50;99.90
7143;DHT22;3613;48.902;9.204;2023-10-08T08:37:36;23.00;99.90
7143;DHT22;3613;48.902;9.204;2023-10-08T08:40:07;23.60;99.90
7143;DHT22;3613;48.902;9.204;2023-10-08T08:42:53;23.70;99.90
7143;DHT22;3613;48.902;9.204;2023-10-08T08:45:22;22.80;99.90
7143;DHT22;3613;48.902;9.204;2023-10-08T08:47:50;22.00;99.90
7143;DHT22;3613;48.902;9.204;2023-10-08T08:50:18;22.00;99.90
7143;DHT22;3613;48.902;9.204;2023-10-08T08:52:47;22.60;99.90
7143;DHT22;3613;48.902;9.204;2023-10-08T08:55:13;23.40;99.90
7143;DHT22;3613;48.902;9.204;2023-10-08T08:57:51;23.80;99.90
7143;DHT22;3613;48.902;9.204;2023-10-08T09:00:20;24.30;99.90
7143;DHT22;3613;48.902;9.204;2023-10-08T09:02:53;24.70;99.90
7143;DHT22;3613;48.902;9.204;2023-10-08T09:05:24;24.90;99.90
7143;DHT22;3613;48.902;9.204;2023-10-08T09:10:22;26.10;99.90
7143;DHT22;3613;48.902;9.204;2023-10-08T09:12:53;26.40;99.90
7143;DHT22;3613;48.902;9.204;2023-10-08T09:15:21;26.60;99.90
7143;DHT22;3613;48.902;9.204;2023-10-08T09:17:48;26.50;99.90
7143;DHT22;3613;48.902;9.204;2023-10-08T09:20:14;26.60;99.90
7143;DHT22;3613;48.902;9.204;2023-10-08T09:22:40;26.50;99.90
7143;DHT22;3613;48.902;9.204;2023-10-08T09:25:09;25.90;99.90
7143;DHT22;3613;48.902;9.204;2023-10-08T09:27:35;25.30;99.90
7143;DHT22;3613;48.902;9.204;2023-10-08T09:30:08;24.90;99.90
7143;DHT22;3613;48.902;9.204;2023-10-08T09:32:43;24.80;99.90
7143;DHT22;3613;48.902;9.204;2023-10-08T09:35:09;24.40;99.90
7143;DHT22;3613;48.902;9.204;2023-10-08T09:37:36;24.40;99.90
7143;DHT22;3613;48.902;9.204;2023-10-08T09:40:05;24.40;99.90
7143;DHT22;3613;48.902;9.204;2023-10-08T09:42:37;24.30;99.90
7143;DHT22;3613;48.902;9.204;2023-10-08T09:45:04;24.10;99.90
7143;DHT22;3613;48.902;9.204;2023-10-08T09:47:36;23.90;99.90
7143;DHT22;3613;48.902;9.204;2023-10-08T09:50:05;24.00;99.90
7143;DHT22;3613;48.902;9.204;2023-10-08T09:52:49;23.70;99.90
7143;DHT22;3613;48.902;9.204;2023-10-08T09:55:22;23.30;99.90
7143;DHT22;3613;48.902;9.204;2023-10-08T09:57:51;23.00;99.90
7143;DHT22;3613;48.902;9.204;2023-10-08T10:00:24;23.00;99.90
7143;DHT22;3613;48.902;9.204;2023-10-08T10:02:59;22.90;99.90
7143;DHT22;3613;48.902;9.204;2023-10-08T10:05:32;23.00;99.90
7143;DHT22;3613;48.902;9.204;2023-10-08T10:08:02;23.30;99.90
7143;DHT22;3613;48.902;9.204;2023-10-08T10:10:32;23.30;99.90
7143;DHT22;3613;48.902;9.204;2023-10-08T10:13:06;23.70;99.90
7143;DHT22;3613;48.902;9.204;2023-10-08T10:15:38;23.80;99.90
7143;DHT22;3613;48.902;9.204;2023-10-08T10:18:43;24.20;99.90
7143;DHT22;3613;48.902;9.204;2023-10-08T10:31:35;24.40;99.90
7143;DHT22;3613;48.902;9.204;2023-10-08T10:34:09;24.50;99.90
7143;DHT22;3613;48.902;9.204;2023-10-08T10:36:41;24.50;99.90
7143;DHT22;3613;48.902;9.204;2023-10-08T10:39:07;24.50;99.90
7143;DHT22;3613;48.902;9.204;2023-10-08T10:41:48;24.40;99.90
7143;DHT22;3613;48.902;9.204;2023-10-08T10:44:19;24.30;99.90
7143;DHT22;3613;48.902;9.204;2023-10-08T10:46:46;24.20;99.90
7143;DHT22;3613;48.902;9.204;2023-10-08T10:49:38;24.20;1.00
7143;DHT22;3613;48.902;9.204;2023-10-08T10:52:14;25.00;99.90
7143;DHT22;3613;48.902;9.204;2023-10-08T10:54:44;25.70;99.90
7143;DHT22;3613;48.902;9.204;2023-10-08T10:57:26;26.50;99.90
7143;DHT22;3613;48.902;9.204;2023-10-08T11:00:06;27.10;1.00
7143;DHT22;3613;48.902;9.204;2023-10-08T11:02:58;27.20;1.00
7143;DHT22;3613;48.902;9.204;2023-10-08T11:05:37;26.90;1.00
7143;DHT22;3613;48.902;9.204;2023-10-08T11:08:10;26.40;1.00
7143;DHT22;3613;48.902;9.204;2023-10-08T11:10:41;26.30;1.00
7143;DHT22;3613;48.902;9.204;2023-10-08T11:13:12;26.40;1.00
7143;DHT22;3613;48.902;9.204;2023-10-08T11:15:44;27.30;1.00
7143;DHT22;3613;48.902;9.204;2023-10-08T11:18:16;28.10;99.90
7143;DHT22;3613;48.902;9.204;2023-10-08T11:20:43;28.60;99.90
7143;DHT22;3613;48.902;9.204;2023-10-08T11:23:32;29.00;99.90
7143;DHT22;3613;48.902;9.204;2023-10-08T11:26:00;28.90;99.90
7143;DHT22;3613;48.902;9.204;2023-10-08T11:31:10;28.90;99.90
7143;DHT22;3613;48.902;9.204;2023-10-08T11:33:43;29.30;99.90
7143;DHT22;3613;48.902;9.204;2023-10-08T11:36:22;29.90;99.90
7143;DHT22;3613;48.902;9.204;2023-10-08T11:39:08;30.40;99.90
7143;DHT22;3613;48.902;9.204;2023-10-08T11:41:37;30.80;99.90
7143;DHT22;3613;48.902;9.204;2023-10-08T11:44:20;30.60;99.90
7143;DHT22;3613;48.902;9.204;2023-10-08T11:46:52;30.80;99.90
7143;DHT22;3613;48.902;9.204;2023-10-08T11:49:18;30.90;99.90
7143;DHT22;3613;48.902;9.204;2023-10-08T11:51:45;31.10;99.90
7143;DHT22;3613;48.902;9.204;2023-10-08T11:54:14;31.10;99.90
7143;DHT22;3613;48.902;9.204;2023-10-08T11:56:40;31.60;99.90
7143;DHT22;3613;48.902;9.204;2023-10-08T11:59:05;31.50;99.90
7143;DHT22;3613;48.902;9.204;2023-10-08T12:01:40;31.40;99.90
7143;DHT22;3613;48.902;9.204;2023-10-08T12:04:08;31.70;99.90
7143;DHT22;3613;48.902;9.204;2023-10-08T12:06:46;31.90;99.90
7143;DHT22;3613;48.902;9.204;2023-10-08T12:09:18;31.70;99.90
7143;DHT22;3613;48.902;9.204;2023-10-08T12:11:49;31.30;99.90
7143;DHT22;3613;48.902;9.204;2023-10-08T12:14:18;31.10;99.90
7143;DHT22;3613;48.902;9.204;2023-10-08T12:16:45;31.00;99.90
7143;DHT22;3613;48.902;9.204;2023-10-08T12:19:11;31.20;99.90
7143;DHT22;3613;48.902;9.204;2023-10-08T12:21:47;31.30;99.90
7143;DHT22;3613;48.902;9.204;2023-10-08T12:24:13;31.70;99.90
7143;DHT22;3613;48.902;9.204;2023-10-08T12:26:41;32.20;99.90
7143;DHT22;3613;48.902;9.204;2023-10-08T12:29:13;32.30;99.90
7143;DHT22;3613;48.902;9.204;2023-10-08T12:31:50;32.60;99.90
7143;DHT22;3613;48.902;9.204;2023-10-08T12:34:20;32.80;99.90
7143;DHT22;3613;48.902;9.204;2023-10-08T12:36:48;33.20;99.90
7143;DHT22;3613;48.902;9.204;2023-10-08T12:39:18;33.40;99.90
7143;DHT22;3613;48.902;9.204;2023-10-08T12:41:47;33.30;99.90
7143;DHT22;3613;48.902;9.204;2023-10-08T12:44:12;33.50;99.90
7143;DHT22;3613;48.902;9.204;2023-10-08T12:46:43;33.50;99.90
7143;DHT22;3613;48.902;9.204;2023-10-08T12:49:09;33.20;99.90
7143;DHT22;3613;48.902;9.204;2023-10-08T12:51:35;32.10;99.90
7143;DHT22;3613;48.902;9.204;2023-10-08T12:54:08;31.80;99.90
7143;DHT22;3613;48.902;9.204;2023-10-08T12:56:36;32.20;99.90
7143;DHT22;3613;48.902;9.204;2023-10-08T12:59:13;32.30;99.90
7143;DHT22;3613;48.902;9.204;2023-10-08T13:01:49;32.40;99.90
7143;DHT22;3613;48.902;9.204;2023-10-08T13:04:21;32.50;99.90
7143;DHT22;3613;48.902;9.204;2023-10-08T13:07:01;32.60;99.90
7143;DHT22;3613;48.902;9.204;2023-10-08T13:09:28;32.40;99.90
7143;DHT22;3613;48.902;9.204;2023-10-08T13:11:56;32.40;99.90
7143;DHT22;3613;48.902;9.204;2023-10-08T13:14:25;32.10;99.90
7143;DHT22;3613;48.902;9.204;2023-10-08T13:16:50;32.20;99.90
7143;DHT22;3613;48.902;9.204;2023-10-08T13:19:20;32.20;99.90
7143;DHT22;3613;48.902;9.204;2023-10-08T13:21:45;32.30;99.90
7143;DHT22;3613;48.902;9.204;2023-10-08T13:24:15;32.40;99.90
7143;DHT22;3613;48.902;9.204;2023-10-08T13:26:44;31.90;99.90
7143;DHT22;3613;48.902;9.204;2023-10-08T13:29:13;31.60;99.90
7143;DHT22;3613;48.902;9.204;2023-10-08T13:31:39;30.80;99.90
7143;DHT22;3613;48.902;9.204;2023-10-08T13:34:05;29.80;99.90
7143;DHT22;3613;48.902;9.204;2023-10-08T13:36:35;28.40;99.90
7143;DHT22;3613;48.902;9.204;2023-10-08T13:39:05;27.30;99.90
7143;DHT22;3613;48.902;9.204;2023-10-08T13:41:37;26.70;99.90
7143;DHT22;3613;48.902;9.204;2023-10-08T13:44:06;26.10;99.90
7143;DHT22;3613;48.902;9.204;2023-10-08T13:46:35;25.60;99.90
7143;DHT22;3613;48.902;9.204;2023-10-08T13:49:02;25.40;99.90
7143;DHT22;3613;48.902;9.204;2023-10-08T13:51:30;25.10;99.90
7143;DHT22;3613;48.902;9.204;2023-10-08T13:53:57;24.90;99.90
7143;DHT22;3613;48.902;9.204;2023-10-08T13:56:27;24.70;99.90
7143;DHT22;3613;48.902;9.204;2023-10-08T13:58:55;24.60;99.90
7143;DHT22;3613;48.902;9.204;2023-10-08T14:01:38;24.40;99.90
7143;DHT22;3613;48.902;9.204;2023-10-08T14:04:06;24.30;99.90
7143;DHT22;3613;48.902;9.204;2023-10-08T14:06:32;24.20;99.90
7143;DHT22;3613;48.902;9.204;2023-10-08T14:09:05;24.10;99.90
7143;DHT22;3613;48.902;9.204;2023-10-08T14:11:38;24.00;1.00
7143;DHT22;3613;48.902;9.204;2023-10-08T14:14:03;23.90;99.90
7143;DHT22;3613;48.902;9.204;2023-10-08T14:16:39;23.80;1.00
7143;DHT22;3613;48.902;9.204;2023-10-08T14:19:10;23.70;1.00
7143;DHT22;3613;48.902;9.204;2023-10-08T14:21:38;23.70;1.00
7143;DHT22;3613;48.902;9.204;2023-10-08T14:24:16;23.70;1.00
7143;DHT22;3613;48.902;9.204;2023-10-08T14:26:42;23.60;1.00
7143;DHT22;3613;48.902;9.204;2023-10-08T14:29:09;23.60;1.00
7143;DHT22;3613;48.902;9.204;2023-10-08T14:31:45;23.50;1.00
7143;DHT22;3613;48.902;9.204;2023-10-08T14:34:15;23.40;99.90
7143;DHT22;3613;48.902;9.204;2023-10-08T14:36:49;23.50;99.90
7143;DHT22;3613;48.902;9.204;2023-10-08T14:39:34;23.60;99.90
7143;DHT22;3613;48.902;9.204;2023-10-08T14:42:21;23.50;99.90
7143;DHT22;3613;48.902;9.204;2023-10-08T14:45:06;23.40;99.90
7143;DHT22;3613;48.902;9.204;2023-10-08T14:47:37;23.40;99.90
7143;DHT22;3613;48.902;9.204;2023-10-08T14:50:03;23.30;99.90
7143;DHT22;3613;48.902;9.204;2023-10-08T14:52:31;23.20;99.90
7143;DHT22;3613;48.902;9.204;2023-10-08T14:54:59;23.20;99.90
7143;DHT22;3613;48.902;9.204;2023-10-08T14:57:24;23.20;99.90
7143;DHT22;3613;48.902;9.204;2023-10-08T14:59:52;23.20;99.90
7143;DHT22;3613;48.902;9.204;2023-10-08T15:02:17;23.20;99.90
7143;DHT22;3613;48.902;9.204;2023-10-08T15:04:43;23.30;99.90
7143;DHT22;3613;48.902;9.204;2023-10-08T15:07:09;23.30;99.90
7143;DHT22;3613;48.902;9.204;2023-10-08T15:09:45;23.30;99.90
7143;DHT22;3613;48.902;9.204;2023-10-08T15:12:11;23.40;99.90
7143;DHT22;3613;48.902;9.204;2023-10-08T15:14:39;23.50;99.90
7143;DHT22;3613;48.902;9.204;2023-10-08T15:17:07;23.50;99.90
7143;DHT22;3613;48.902;9.204;2023-10-08T15:19:38;23.40;99.90
7143;DHT22;3613;48.902;9.204;2023-10-08T15:22:06;23.40;99.90
7143;DHT22;3613;48.902;9.204;2023-10-08T15:24:31;23.30;99.90
7143;DHT22;3613;48.902;9.204;2023-10-08T15:26:59;23.30;99.90
7143;DHT22;3613;48.902;9.204;2023-10-08T15:29:26;23.20;99.90
7143;DHT22;3613;48.902;9.204;2023-10-08T15:31:55;23.00;99.90
7143;DHT22;3613;48.902;9.204;2023-10-08T15:34:33;23.00;99.90
7143;DHT22;3613;48.902;9.204;2023-10-08T15:37:01;22.80;99.90
7143;DHT22;3613;48.902;9.204;2023-10-08T15:39:29;22.70;99.90
7143;DHT22;3613;48.902;9.204;2023-10-08T15:41:54;22.70;1.00
7143;DHT22;3613;48.902;9.204;2023-10-08T15:44:20;22.60;1.00
7143;DHT22;3613;48.902;9.204;2023-10-08T15:46:47;22.50;1.00
7143;DHT22;3613;48.902;9.204;2023-10-08T15:49:15;22.40;1.00
7143;DHT22;3613;48.902;9.204;2023-10-08T15:51:46;22.30;1.00
7143;DHT22;3613;48.902;9.204;2023-10-08T15:54:12;22.30;1.00
7143;DHT22;3613;48.902;9.204;2023-10-08T15:56:38;22.30;1.00
7143;DHT22;3613;48.902;9.204;2023-10-08T15:59:04;22.30;30.50
7143;DHT22;3613;48.902;9.204;2023-10-08T16:01:29;22.20;89.90
7143;DHT22;3613;48.902;9.204;2023-10-08T16:03:55;22.10;99.90
7143;DHT22;3613;48.902;9.204;2023-10-08T16:06:23;22.00;99.90
7143;DHT22;3613;48.902;9.204;2023-10-08T16:08:49;21.90;99.90
7143;DHT22;3613;48.902;9.204;2023-10-08T16:11:15;21.90;99.90
7143;DHT22;3613;48.902;9.204;2023-10-08T16:13:40;21.80;99.90
7143;DHT22;3613;48.902;9.204;2023-10-08T16:16:11;21.70;99.90
7143;DHT22;3613;48.902;9.204;2023-10-08T16:18:37;21.60;99.90
7143;DHT22;3613;48.902;9.204;2023-10-08T16:21:06;21.40;1.00
7143;DHT22;3613;48.902;9.204;2023-10-08T16:23:35;21.20;1.00
7143;DHT22;3613;48.902;9.204;2023-10-08T16:26:01;21.10;1.00
7143;DHT22;3613;48.902;9.204;2023-10-08T16:28:27;20.80;1.00
7143;DHT22;3613;48.902;9.204;2023-10-08T16:30:56;20.50;29.90
7143;DHT22;3613;48.902;9.204;2023-10-08T16:33:26;20.30;99.90
7143;DHT22;3613;48.902;9.204;2023-10-08T16:35:55;20.00;99.90
7143;DHT22;3613;48.902;9.204;2023-10-08T16:38:21;19.80;99.90
7143;DHT22;3613;48.902;9.204;2023-10-08T16:40:47;19.50;99.90
7143;DHT22;3613;48.902;9.204;2023-10-08T16:43:12;19.30;1.00
7143;DHT22;3613;48.902;9.204;2023-10-08T16:45:44;19.10;1.00
7143;DHT22;3613;48.902;9.204;2023-10-08T16:48:11;19.00;1.00
7143;DHT22;3613;48.902;9.204;2023-10-08T16:50:37;18.70;1.00
7143;DHT22;3613;48.902;9.204;2023-10-08T16:53:03;18.60;1.00
7143;DHT22;3613;48.902;9.204;2023-10-08T16:55:29;18.40;1.00
7143;DHT22;3613;48.902;9.204;2023-10-08T16:57:59;18.20;1.00